sensor_id;sensor_type;location;lat;lon;timestamp;temperature;humidity
6956;DHT22;50345;51.136;16.886;2023-05-13T00:00:01;12.60;57.00
6956;DHT22;50345;51.136;16.886;2023-05-13T00:02:27;12.50;57.00
6956;DHT22;50345;51.136;16.886;2023-05-13T00:04:52;12.50;57.20
6956;DHT22;50345;51.136;16.886;2023-05-13T00:07:18;12.50;57.30
6956;DHT22;50345;51.136;16.886;2023-05-13T00:09:43;12.40;57.30
6956;DHT22;50345;51.136;16.886;2023-05-13T00:12:09;12.40;57.50
6956;DHT22;50345;51.136;16.886;2023-05-13T00:14:35;12.40;57.70
6956;DHT22;50345;51.136;16.886;2023-05-13T00:17:00;12.40;57.90
6956;DHT22;50345;51.136;16.886;2023-05-13T00:19:29;12.30;58.00
6956;DHT22;50345;51.136;16.886;2023-05-13T00:21:55;12.30;58.10
6956;DHT22;50345;51.136;16.886;2023-05-13T00:24:20;12.20;58.20
6956;DHT22;50345;51.136;16.886;2023-05-13T00:26:46;12.20;58.60
6956;DHT22;50345;51.136;16.886;2023-05-13T00:29:11;12.20;58.90
6956;DHT22;50345;51.136;16.886;2023-05-13T00:31:37;12.10;59.00
6956;DHT22;50345;51.136;16.886;2023-05-13T00:34:03;12.10;59.20
6956;DHT22;50345;51.136;16.886;2023-05-13T00:36:28;12.10;59.60
6956;DHT22;50345;51.136;16.886;2023-05-13T00:38:54;12.00;59.80
6956;DHT22;50345;51.136;16.886;2023-05-13T00:41:21;12.00;60.20
6956;DHT22;50345;51.136;16.886;2023-05-13T00:43:47;12.00;60.00
6956;DHT22;50345;51.136;16.886;2023-05-13T00:46:13;12.00;61.10
6956;DHT22;50345;51.136;16.886;2023-05-13T00:48:39;12.00;61.50
6956;DHT22;50345;51.136;16.886;2023-05-13T00:51:04;11.90;61.90
6956;DHT22;50345;51.136;16.886;2023-05-13T00:53:32;11.90;62.30
6956;DHT22;50345;51.136;16.886;2023-05-13T00:55:58;11.90;62.60
6956;DHT22;50345;51.136;16.886;2023-05-13T00:58:24;11.90;62.60
6956;DHT22;50345;51.136;16.886;2023-05-13T01:01:02;11.80;62.80
6956;DHT22;50345;51.136;16.886;2023-05-13T01:03:41;11.70;63.90
6956;DHT22;50345;51.136;16.886;2023-05-13T01:06:16;11.60;64.90
6956;DHT22;50345;51.136;16.886;2023-05-13T01:11:40;11.60;69.40
6956;DHT22;50345;51.136;16.886;2023-05-13T01:14:11;11.60;72.10
6956;DHT22;50345;51.136;16.886;2023-05-13T01:16:51;11.60;73.40
6956;DHT22;50345;51.136;16.886;2023-05-13T01:19:51;11.60;75.20
6956;DHT22;50345;51.136;16.886;2023-05-13T01:22:16;11.50;77.90
6956;DHT22;50345;51.136;16.886;2023-05-13T01:24:42;11.50;79.80
6956;DHT22;50345;51.136;16.886;2023-05-13T01:27:08;11.50;80.80
6956;DHT22;50345;51.136;16.886;2023-05-13T01:29:34;11.50;83.50
6956;DHT22;50345;51.136;16.886;2023-05-13T01:32:00;11.50;86.80
6956;DHT22;50345;51.136;16.886;2023-05-13T01:34:26;11.40;89.10
6956;DHT22;50345;51.136;16.886;2023-05-13T01:36:53;11.40;90.20
6956;DHT22;50345;51.136;16.886;2023-05-13T01:39:19;11.40;90.50
6956;DHT22;50345;51.136;16.886;2023-05-13T01:41:45;11.30;90.50
6956;DHT22;50345;51.136;16.886;2023-05-13T01:44:10;11.30;91.40
6956;DHT22;50345;51.136;16.886;2023-05-13T01:46:38;11.30;92.10
6956;DHT22;50345;51.136;16.886;2023-05-13T01:49:04;11.20;92.10
6956;DHT22;50345;51.136;16.886;2023-05-13T01:51:32;11.20;91.90
6956;DHT22;50345;51.136;16.886;2023-05-13T01:53:57;11.10;91.90
6956;DHT22;50345;51.136;16.886;2023-05-13T01:56:23;11.20;92.30
6956;DHT22;50345;51.136;16.886;2023-05-13T01:58:48;11.10;92.40
6956;DHT22;50345;51.136;16.886;2023-05-13T02:01:14;11.10;92.80
6956;DHT22;50345;51.136;16.886;2023-05-13T02:03:40;11.10;92.80
6956;DHT22;50345;51.136;16.886;2023-05-13T02:06:06;11.10;92.80
6956;DHT22;50345;51.136;16.886;2023-05-13T02:08:31;11.10;93.20
6956;DHT22;50345;51.136;16.886;2023-05-13T02:10:57;11.00;94.00
6956;DHT22;50345;51.136;16.886;2023-05-13T02:13:24;11.00;94.90
6956;DHT22;50345;51.136;16.886;2023-05-13T02:15:50;11.00;95.80
6956;DHT22;50345;51.136;16.886;2023-05-13T02:18:15;10.90;97.10
6956;DHT22;50345;51.136;16.886;2023-05-13T02:20:41;10.90;98.60
6956;DHT22;50345;51.136;16.886;2023-05-13T02:23:07;10.80;99.90
6956;DHT22;50345;51.136;16.886;2023-05-13T02:25:33;10.80;99.90
6956;DHT22;50345;51.136;16.886;2023-05-13T02:27:58;10.70;99.90
6956;DHT22;50345;51.136;16.886;2023-05-13T02:30:24;10.70;99.90
6956;DHT22;50345;51.136;16.886;2023-05-13T02:32:52;10.60;99.90
6956;DHT22;50345;51.136;16.886;2023-05-13T02:35:17;10.60;99.90
6956;DHT22;50345;51.136;16.886;2023-05-13T02:37:43;10.50;99.90
6956;DHT22;50345;51.136;16.886;2023-05-13T02:40:09;10.50;99.90
6956;DHT22;50345;51.136;16.886;2023-05-13T02:42:35;10.50;99.90
6956;DHT22;50345;51.136;16.886;2023-05-13T02:45:00;10.40;99.90
6956;DHT22;50345;51.136;16.886;2023-05-13T02:47:26;10.40;99.90
6956;DHT22;50345;51.136;16.886;2023-05-13T02:49:54;10.40;99.90
6956;DHT22;50345;51.136;16.886;2023-05-13T02:52:20;10.30;99.90
6956;DHT22;50345;51.136;16.886;2023-05-13T02:54:45;10.30;99.90
6956;DHT22;50345;51.136;16.886;2023-05-13T02:57:11;10.30;99.90
6956;DHT22;50345;51.136;16.886;2023-05-13T02:59:37;10.30;99.90
6956;DHT22;50345;51.136;16.886;2023-05-13T03:02:02;10.20;99.90
6956;DHT22;50345;51.136;16.886;2023-05-13T03:04:28;10.20;99.90
6956;DHT22;50345;51.136;16.886;2023-05-13T03:06:53;10.20;99.90
6956;DHT22;50345;51.136;16.886;2023-05-13T03:09:19;10.10;99.90
6956;DHT22;50345;51.136;16.886;2023-05-13T03:11:45;10.20;99.90
6956;DHT22;50345;51.136;16.886;2023-05-13T03:14:10;10.10;99.90
6956;DHT22;50345;51.136;16.886;2023-05-13T03:16:36;10.10;99.90
6956;DHT22;50345;51.136;16.886;2023-05-13T03:19:01;10.10;99.90
6956;DHT22;50345;51.136;16.886;2023-05-13T03:21:27;10.10;99.90
6956;DHT22;50345;51.136;16.886;2023-05-13T03:23:53;10.10;99.90
6956;DHT22;50345;51.136;16.886;2023-05-13T03:26:18;10.10;99.90
6956;DHT22;50345;51.136;16.886;2023-05-13T03:28:45;10.10;99.90
6956;DHT22;50345;51.136;16.886;2023-05-13T03:31:11;10.10;99.90
6956;DHT22;50345;51.136;16.886;2023-05-13T03:33:37;10.10;99.90
6956;DHT22;50345;51.136;16.886;2023-05-13T03:36:03;10.10;99.90
6956;DHT22;50345;51.136;16.886;2023-05-13T03:38:29;10.20;99.90
6956;DHT22;50345;51.136;16.886;2023-05-13T03:40:55;10.20;99.90
6956;DHT22;50345;51.136;16.886;2023-05-13T03:43:21;10.20;99.90
6956;DHT22;50345;51.136;16.886;2023-05-13T03:45:46;10.20;99.90
6956;DHT22;50345;51.136;16.886;2023-05-13T03:48:13;10.20;99.90
6956;DHT22;50345;51.136;16.886;2023-05-13T03:50:39;10.20;99.90
6956;DHT22;50345;51.136;16.886;2023-05-13T03:53:05;10.20;99.90
6956;DHT22;50345;51.136;16.886;2023-05-13T03:55:31;10.30;99.90
6956;DHT22;50345;51.136;16.886;2023-05-13T03:57:57;10.30;99.90
6956;DHT22;50345;51.136;16.886;2023-05-13T04:00:22;10.30;99.90
6956;DHT22;50345;51.136;16.886;2023-05-13T04:02:48;10.30;99.90
6956;DHT22;50345;51.136;16.886;2023-05-13T04:05:13;10.30;99.90
6956;DHT22;50345;51.136;16.886;2023-05-13T04:07:39;10.30;99.90
6956;DHT22;50345;51.136;16.886;2023-05-13T04:10:05;10.40;99.90
6956;DHT22;50345;51.136;16.886;2023-05-13T04:12:31;10.40;99.90
6956;DHT22;50345;51.136;16.886;2023-05-13T04:14:58;10.50;99.90
6956;DHT22;50345;51.136;16.886;2023-05-13T04:17:23;10.50;99.90
6956;DHT22;50345;51.136;16.886;2023-05-13T04:19:53;10.60;99.90
6956;DHT22;50345;51.136;16.886;2023-05-13T04:22:20;10.60;99.90
6956;DHT22;50345;51.136;16.886;2023-05-13T04:24:45;10.70;99.90
6956;DHT22;50345;51.136;16.886;2023-05-13T04:27:11;10.70;99.90
6956;DHT22;50345;51.136;16.886;2023-05-13T04:29:36;10.80;99.90
6956;DHT22;50345;51.136;16.886;2023-05-13T04:32:02;10.80;99.90
6956;DHT22;50345;51.136;16.886;2023-05-13T04:34:27;10.90;99.90
6956;DHT22;50345;51.136;16.886;2023-05-13T04:36:53;10.90;99.90
6956;DHT22;50345;51.136;16.886;2023-05-13T04:39:19;11.00;99.90
6956;DHT22;50345;51.136;16.886;2023-05-13T04:41:44;11.10;99.90
6956;DHT22;50345;51.136;16.886;2023-05-13T04:44:10;11.20;99.90
6956;DHT22;50345;51.136;16.886;2023-05-13T04:46:35;11.10;99.90
6956;DHT22;50345;51.136;16.886;2023-05-13T04:49:05;11.20;99.90
6956;DHT22;50345;51.136;16.886;2023-05-13T04:51:30;11.30;99.90
6956;DHT22;50345;51.136;16.886;2023-05-13T04:53:57;11.40;99.90
6956;DHT22;50345;51.136;16.886;2023-05-13T04:56:23;11.40;99.90
6956;DHT22;50345;51.136;16.886;2023-05-13T04:58:48;11.50;99.90
6956;DHT22;50345;51.136;16.886;2023-05-13T05:01:14;11.50;99.90
6956;DHT22;50345;51.136;16.886;2023-05-13T05:03:39;11.70;99.90
6956;DHT22;50345;51.136;16.886;2023-05-13T05:06:05;11.70;99.90
6956;DHT22;50345;51.136;16.886;2023-05-13T05:08:31;11.80;99.90
6956;DHT22;50345;51.136;16.886;2023-05-13T05:10:56;11.80;99.90
6956;DHT22;50345;51.136;16.886;2023-05-13T05:13:22;11.90;99.00
6956;DHT22;50345;51.136;16.886;2023-05-13T05:15:47;12.00;98.90
6956;DHT22;50345;51.136;16.886;2023-05-13T05:18:13;12.10;98.00
6956;DHT22;50345;51.136;16.886;2023-05-13T05:20:39;12.10;97.30
6956;DHT22;50345;51.136;16.886;2023-05-13T05:23:04;12.20;97.10
6956;DHT22;50345;51.136;16.886;2023-05-13T05:25:31;12.30;96.80
6956;DHT22;50345;51.136;16.886;2023-05-13T05:27:57;12.40;96.70
6956;DHT22;50345;51.136;16.886;2023-05-13T05:30:22;12.50;96.40
6956;DHT22;50345;51.136;16.886;2023-05-13T05:32:48;12.50;95.80
6956;DHT22;50345;51.136;16.886;2023-05-13T05:35:14;12.60;95.80
6956;DHT22;50345;51.136;16.886;2023-05-13T05:37:41;12.60;95.30
6956;DHT22;50345;51.136;16.886;2023-05-13T05:40:07;12.70;94.70
6956;DHT22;50345;51.136;16.886;2023-05-13T05:42:32;12.70;93.70
6956;DHT22;50345;51.136;16.886;2023-05-13T05:44:58;12.80;93.90
6956;DHT22;50345;51.136;16.886;2023-05-13T05:47:24;12.90;94.50
6956;DHT22;50345;51.136;16.886;2023-05-13T05:49:49;13.00;94.20
6956;DHT22;50345;51.136;16.886;2023-05-13T05:52:15;13.00;93.30
6956;DHT22;50345;51.136;16.886;2023-05-13T05:54:40;13.00;93.50
6956;DHT22;50345;51.136;16.886;2023-05-13T05:57:06;13.10;93.40
6956;DHT22;50345;51.136;16.886;2023-05-13T06:01:58;13.20;92.30
6956;DHT22;50345;51.136;16.886;2023-05-13T06:04:23;13.30;92.10
6956;DHT22;50345;51.136;16.886;2023-05-13T06:06:49;13.30;91.90
6956;DHT22;50345;51.136;16.886;2023-05-13T06:09:14;13.30;91.80
6956;DHT22;50345;51.136;16.886;2023-05-13T06:11:40;13.40;91.10
6956;DHT22;50345;51.136;16.886;2023-05-13T06:14:05;13.40;91.40
6956;DHT22;50345;51.136;16.886;2023-05-13T06:16:31;13.50;90.90
6956;DHT22;50345;51.136;16.886;2023-05-13T06:18:57;13.50;91.00
6956;DHT22;50345;51.136;16.886;2023-05-13T06:21:22;13.50;90.90
6956;DHT22;50345;51.136;16.886;2023-05-13T06:23:48;13.60;91.30
6956;DHT22;50345;51.136;16.886;2023-05-13T06:26:13;13.70;91.00
6956;DHT22;50345;51.136;16.886;2023-05-13T06:28:39;13.80;91.20
6956;DHT22;50345;51.136;16.886;2023-05-13T06:31:04;13.90;90.40
6956;DHT22;50345;51.136;16.886;2023-05-13T06:33:30;13.90;91.00
6956;DHT22;50345;51.136;16.886;2023-05-13T06:35:55;14.00;91.50
6956;DHT22;50345;51.136;16.886;2023-05-13T06:38:21;14.10;90.90
6956;DHT22;50345;51.136;16.886;2023-05-13T06:40:47;14.20;90.60
6956;DHT22;50345;51.136;16.886;2023-05-13T06:43:12;14.20;90.20
6956;DHT22;50345;51.136;16.886;2023-05-13T06:45:40;14.20;89.10
6956;DHT22;50345;51.136;16.886;2023-05-13T06:48:07;14.30;89.90
6956;DHT22;50345;51.136;16.886;2023-05-13T06:50:32;14.30;89.70
6956;DHT22;50345;51.136;16.886;2023-05-13T06:52:58;14.40;90.00
6956;DHT22;50345;51.136;16.886;2023-05-13T06:55:23;14.40;89.50
6956;DHT22;50345;51.136;16.886;2023-05-13T06:57:49;14.50;89.40
6956;DHT22;50345;51.136;16.886;2023-05-13T07:00:15;14.60;89.70
6956;DHT22;50345;51.136;16.886;2023-05-13T07:02:41;14.60;88.60
6956;DHT22;50345;51.136;16.886;2023-05-13T07:07:33;14.70;87.50
6956;DHT22;50345;51.136;16.886;2023-05-13T07:09:59;14.70;86.80
6956;DHT22;50345;51.136;16.886;2023-05-13T07:12:24;14.80;88.70
6956;DHT22;50345;51.136;16.886;2023-05-13T07:14:50;14.90;88.60
6956;DHT22;50345;51.136;16.886;2023-05-13T07:17:16;15.00;86.40
6956;DHT22;50345;51.136;16.886;2023-05-13T07:19:41;15.10;87.80
6956;DHT22;50345;51.136;16.886;2023-05-13T07:22:07;15.20;89.10
6956;DHT22;50345;51.136;16.886;2023-05-13T07:24:32;15.40;87.80
6956;DHT22;50345;51.136;16.886;2023-05-13T07:26:58;15.50;86.20
6956;DHT22;50345;51.136;16.886;2023-05-13T07:29:24;15.60;86.40
6956;DHT22;50345;51.136;16.886;2023-05-13T07:31:49;15.70;85.20
6956;DHT22;50345;51.136;16.886;2023-05-13T07:34:15;15.90;85.10
6956;DHT22;50345;51.136;16.886;2023-05-13T07:36:41;16.00;83.50
6956;DHT22;50345;51.136;16.886;2023-05-13T07:39:06;16.10;82.80
6956;DHT22;50345;51.136;16.886;2023-05-13T07:41:33;16.20;81.40
6956;DHT22;50345;51.136;16.886;2023-05-13T07:43:59;16.30;82.40
6956;DHT22;50345;51.136;16.886;2023-05-13T07:46:24;16.40;81.40
6956;DHT22;50345;51.136;16.886;2023-05-13T07:48:50;16.60;82.40
6956;DHT22;50345;51.136;16.886;2023-05-13T07:51:16;16.80;82.50
6956;DHT22;50345;51.136;16.886;2023-05-13T07:53:43;17.00;80.10
6956;DHT22;50345;51.136;16.886;2023-05-13T07:56:09;17.10;77.90
6956;DHT22;50345;51.136;16.886;2023-05-13T07:58:35;17.20;75.90
6956;DHT22;50345;51.136;16.886;2023-05-13T08:01:01;17.30;76.60
6956;DHT22;50345;51.136;16.886;2023-05-13T08:03:28;17.50;77.20
6956;DHT22;50345;51.136;16.886;2023-05-13T08:05:53;17.60;76.50
6956;DHT22;50345;51.136;16.886;2023-05-13T08:08:19;17.80;74.70
6956;DHT22;50345;51.136;16.886;2023-05-13T08:10:45;17.90;75.00
6956;DHT22;50345;51.136;16.886;2023-05-13T08:13:10;18.10;72.70
6956;DHT22;50345;51.136;16.886;2023-05-13T08:15:36;18.20;71.30
6956;DHT22;50345;51.136;16.886;2023-05-13T08:18:02;18.30;70.70
6956;DHT22;50345;51.136;16.886;2023-05-13T08:20:28;18.40;71.00
6956;DHT22;50345;51.136;16.886;2023-05-13T08:22:57;18.60;68.40
6956;DHT22;50345;51.136;16.886;2023-05-13T08:25:23;18.80;68.90
6956;DHT22;50345;51.136;16.886;2023-05-13T08:27:48;18.90;66.50
6956;DHT22;50345;51.136;16.886;2023-05-13T08:30:14;19.00;64.30
6956;DHT22;50345;51.136;16.886;2023-05-13T08:32:40;19.00;65.00
6956;DHT22;50345;51.136;16.886;2023-05-13T08:35:06;19.10;64.80
6956;DHT22;50345;51.136;16.886;2023-05-13T08:37:31;19.30;64.30
6956;DHT22;50345;51.136;16.886;2023-05-13T08:39:57;19.40;62.90
6956;DHT22;50345;51.136;16.886;2023-05-13T08:42:27;19.50;62.20
6956;DHT22;50345;51.136;16.886;2023-05-13T08:44:55;19.70;61.90
6956;DHT22;50345;51.136;16.886;2023-05-13T08:49:52;20.10;62.70
6956;DHT22;50345;51.136;16.886;2023-05-13T08:52:18;20.40;61.20
6956;DHT22;50345;51.136;16.886;2023-05-13T08:54:45;20.70;59.40
6956;DHT22;50345;51.136;16.886;2023-05-13T08:59:38;21.80;55.30
6956;DHT22;50345;51.136;16.886;2023-05-13T09:02:04;22.10;54.00
6956;DHT22;50345;51.136;16.886;2023-05-13T09:04:31;23.20;50.70
6956;DHT22;50345;51.136;16.886;2023-05-13T09:06:57;23.90;49.80
6956;DHT22;50345;51.136;16.886;2023-05-13T09:09:23;24.00;50.20
6956;DHT22;50345;51.136;16.886;2023-05-13T09:11:48;24.40;47.40
6956;DHT22;50345;51.136;16.886;2023-05-13T09:14:18;25.50;46.00
6956;DHT22;50345;51.136;16.886;2023-05-13T09:16:44;28.00;40.80
6956;DHT22;50345;51.136;16.886;2023-05-13T09:19:09;29.00;38.10
6956;DHT22;50345;51.136;16.886;2023-05-13T09:21:35;30.10;35.60
6956;DHT22;50345;51.136;16.886;2023-05-13T09:24:08;30.70;34.70
6956;DHT22;50345;51.136;16.886;2023-05-13T09:26:35;31.20;33.50
6956;DHT22;50345;51.136;16.886;2023-05-13T09:29:14;30.00;33.70
6956;DHT22;50345;51.136;16.886;2023-05-13T09:31:41;29.00;35.70
6956;DHT22;50345;51.136;16.886;2023-05-13T09:34:06;28.00;36.90
6956;DHT22;50345;51.136;16.886;2023-05-13T09:36:32;26.20;39.20
6956;DHT22;50345;51.136;16.886;2023-05-13T09:38:58;25.70;40.10
6956;DHT22;50345;51.136;16.886;2023-05-13T09:41:26;25.20;42.20
6956;DHT22;50345;51.136;16.886;2023-05-13T09:43:51;27.40;39.70
6956;DHT22;50345;51.136;16.886;2023-05-13T09:46:17;27.50;40.00
6956;DHT22;50345;51.136;16.886;2023-05-13T09:48:43;27.30;39.40
6956;DHT22;50345;51.136;16.886;2023-05-13T09:51:09;26.80;39.50
6956;DHT22;50345;51.136;16.886;2023-05-13T09:53:34;25.60;40.10
6956;DHT22;50345;51.136;16.886;2023-05-13T09:56:00;25.40;40.70
6956;DHT22;50345;51.136;16.886;2023-05-13T09:58:27;24.70;41.40
6956;DHT22;50345;51.136;16.886;2023-05-13T10:00:53;24.20;42.50
6956;DHT22;50345;51.136;16.886;2023-05-13T10:03:19;26.90;39.20
6956;DHT22;50345;51.136;16.886;2023-05-13T10:05:47;27.30;38.00
6956;DHT22;50345;51.136;16.886;2023-05-13T10:08:13;27.50;38.90
6956;DHT22;50345;51.136;16.886;2023-05-13T10:10:40;27.30;38.80
6956;DHT22;50345;51.136;16.886;2023-05-13T10:13:12;26.80;38.90
6956;DHT22;50345;51.136;16.886;2023-05-13T10:15:56;25.70;39.40
6956;DHT22;50345;51.136;16.886;2023-05-13T10:18:23;25.50;40.70
6956;DHT22;50345;51.136;16.886;2023-05-13T10:20:48;24.90;41.90
6956;DHT22;50345;51.136;16.886;2023-05-13T10:23:20;24.40;42.50
6956;DHT22;50345;51.136;16.886;2023-05-13T10:25:47;24.40;41.90
6956;DHT22;50345;51.136;16.886;2023-05-13T10:28:13;24.70;42.10
6956;DHT22;50345;51.136;16.886;2023-05-13T10:30:39;24.90;41.80
6956;DHT22;50345;51.136;16.886;2023-05-13T10:33:05;24.80;41.40
6956;DHT22;50345;51.136;16.886;2023-05-13T10:35:35;24.60;41.90
6956;DHT22;50345;51.136;16.886;2023-05-13T10:38:08;24.10;40.90
6956;DHT22;50345;51.136;16.886;2023-05-13T10:43:14;23.40;42.20
6956;DHT22;50345;51.136;16.886;2023-05-13T10:45:49;24.80;39.90
6956;DHT22;50345;51.136;16.886;2023-05-13T10:48:16;28.00;34.40
6956;DHT22;50345;51.136;16.886;2023-05-13T10:51:02;28.10;35.00
6956;DHT22;50345;51.136;16.886;2023-05-13T10:53:34;28.40;33.00
6956;DHT22;50345;51.136;16.886;2023-05-13T10:56:02;28.00;34.10
6956;DHT22;50345;51.136;16.886;2023-05-13T10:58:33;27.20;35.30
6956;DHT22;50345;51.136;16.886;2023-05-13T11:01:35;26.50;36.80
6956;DHT22;50345;51.136;16.886;2023-05-13T11:04:04;25.70;37.50
6956;DHT22;50345;51.136;16.886;2023-05-13T11:06:34;25.30;38.80
6956;DHT22;50345;51.136;16.886;2023-05-13T11:09:04;26.40;38.40
6956;DHT22;50345;51.136;16.886;2023-05-13T11:11:32;29.00;31.90
6956;DHT22;50345;51.136;16.886;2023-05-13T11:16:24;30.00;30.30
6956;DHT22;50345;51.136;16.886;2023-05-13T11:18:51;29.80;31.60
6956;DHT22;50345;51.136;16.886;2023-05-13T11:21:17;29.00;33.30
6956;DHT22;50345;51.136;16.886;2023-05-13T11:23:58;27.50;32.70
6956;DHT22;50345;51.136;16.886;2023-05-13T11:26:25;27.40;33.50
6956;DHT22;50345;51.136;16.886;2023-05-13T11:29:06;27.10;33.70
6956;DHT22;50345;51.136;16.886;2023-05-13T11:31:47;27.20;32.70
6956;DHT22;50345;51.136;16.886;2023-05-13T11:34:16;27.30;31.90
6956;DHT22;50345;51.136;16.886;2023-05-13T11:39:28;26.90;31.40
6956;DHT22;50345;51.136;16.886;2023-05-13T11:41:53;26.30;32.30
6956;DHT22;50345;51.136;16.886;2023-05-13T11:44:22;25.90;33.50
6956;DHT22;50345;51.136;16.886;2023-05-13T11:52:01;25.20;34.60
6956;DHT22;50345;51.136;16.886;2023-05-13T11:54:27;25.10;35.20
6956;DHT22;50345;51.136;16.886;2023-05-13T11:56:53;25.10;34.90
6956;DHT22;50345;51.136;16.886;2023-05-13T11:59:18;25.10;35.70
6956;DHT22;50345;51.136;16.886;2023-05-13T12:01:44;25.20;35.30
6956;DHT22;50345;51.136;16.886;2023-05-13T12:04:10;25.30;35.00
6956;DHT22;50345;51.136;16.886;2023-05-13T12:06:43;25.70;35.70
6956;DHT22;50345;51.136;16.886;2023-05-13T12:09:11;26.30;35.30
6956;DHT22;50345;51.136;16.886;2023-05-13T12:11:37;26.60;33.50
6956;DHT22;50345;51.136;16.886;2023-05-13T12:14:03;26.60;33.60
6956;DHT22;50345;51.136;16.886;2023-05-13T12:16:29;26.70;33.60
6956;DHT22;50345;51.136;16.886;2023-05-13T12:18:59;26.70;33.00
6956;DHT22;50345;51.136;16.886;2023-05-13T12:21:31;26.60;33.30
6956;DHT22;50345;51.136;16.886;2023-05-13T12:23:57;26.60;32.60
6956;DHT22;50345;51.136;16.886;2023-05-13T12:26:23;26.40;32.30
6956;DHT22;50345;51.136;16.886;2023-05-13T12:28:55;26.20;33.10
6956;DHT22;50345;51.136;16.886;2023-05-13T12:31:21;26.00;33.20
6956;DHT22;50345;51.136;16.886;2023-05-13T12:33:48;25.80;32.80
6956;DHT22;50345;51.136;16.886;2023-05-13T12:36:22;25.80;33.70
6956;DHT22;50345;51.136;16.886;2023-05-13T12:38:58;26.00;33.30
6956;DHT22;50345;51.136;16.886;2023-05-13T12:41:25;26.00;33.10
6956;DHT22;50345;51.136;16.886;2023-05-13T12:44:00;26.00;33.80
6956;DHT22;50345;51.136;16.886;2023-05-13T12:46:26;25.90;34.00
6956;DHT22;50345;51.136;16.886;2023-05-13T12:48:57;25.60;34.00
6956;DHT22;50345;51.136;16.886;2023-05-13T12:51:24;25.30;34.70
6956;DHT22;50345;51.136;16.886;2023-05-13T12:53:50;24.90;35.00
6956;DHT22;50345;51.136;16.886;2023-05-13T12:56:21;24.50;35.30
6956;DHT22;50345;51.136;16.886;2023-05-13T12:58:54;24.00;35.10
6956;DHT22;50345;51.136;16.886;2023-05-13T13:01:20;23.70;36.30
6956;DHT22;50345;51.136;16.886;2023-05-13T13:03:45;23.40;35.90
6956;DHT22;50345;51.136;16.886;2023-05-13T13:06:12;23.10;35.50
6956;DHT22;50345;51.136;16.886;2023-05-13T13:08:38;23.10;35.50
6956;DHT22;50345;51.136;16.886;2023-05-13T13:11:04;22.90;35.80
6956;DHT22;50345;51.136;16.886;2023-05-13T13:13:30;22.80;36.30
6956;DHT22;50345;51.136;16.886;2023-05-13T13:15:57;22.90;36.10
6956;DHT22;50345;51.136;16.886;2023-05-13T13:18:22;23.00;35.20
6956;DHT22;50345;51.136;16.886;2023-05-13T13:20:50;23.20;35.30
6956;DHT22;50345;51.136;16.886;2023-05-13T13:23:16;23.50;35.70
6956;DHT22;50345;51.136;16.886;2023-05-13T13:25:42;23.60;34.30
6956;DHT22;50345;51.136;16.886;2023-05-13T13:28:07;23.70;34.30
6956;DHT22;50345;51.136;16.886;2023-05-13T13:30:33;23.90;34.20
6956;DHT22;50345;51.136;16.886;2023-05-13T13:32:59;24.00;33.60
6956;DHT22;50345;51.136;16.886;2023-05-13T13:35:24;23.90;34.00
6956;DHT22;50345;51.136;16.886;2023-05-13T13:37:50;23.80;35.20
6956;DHT22;50345;51.136;16.886;2023-05-13T13:40:15;24.00;35.90
6956;DHT22;50345;51.136;16.886;2023-05-13T13:42:42;24.00;35.30
6956;DHT22;50345;51.136;16.886;2023-05-13T13:45:08;24.20;34.80
6956;DHT22;50345;51.136;16.886;2023-05-13T13:47:34;24.10;35.20
6956;DHT22;50345;51.136;16.886;2023-05-13T13:50:00;23.80;36.00
6956;DHT22;50345;51.136;16.886;2023-05-13T13:52:25;23.30;36.50
6956;DHT22;50345;51.136;16.886;2023-05-13T13:54:53;22.80;36.70
6956;DHT22;50345;51.136;16.886;2023-05-13T13:57:19;22.70;36.80
6956;DHT22;50345;51.136;16.886;2023-05-13T13:59:44;22.50;37.10
6956;DHT22;50345;51.136;16.886;2023-05-13T14:02:10;22.50;37.50
6956;DHT22;50345;51.136;16.886;2023-05-13T14:04:35;22.40;38.10
6956;DHT22;50345;51.136;16.886;2023-05-13T14:07:01;22.40;38.90
6956;DHT22;50345;51.136;16.886;2023-05-13T14:09:26;22.50;39.30
6956;DHT22;50345;51.136;16.886;2023-05-13T14:11:52;22.80;39.50
6956;DHT22;50345;51.136;16.886;2023-05-13T14:14:18;23.10;39.50
6956;DHT22;50345;51.136;16.886;2023-05-13T14:16:43;23.30;39.70
6956;DHT22;50345;51.136;16.886;2023-05-13T14:19:10;23.40;38.40
6956;DHT22;50345;51.136;16.886;2023-05-13T14:21:35;23.30;38.50
6956;DHT22;50345;51.136;16.886;2023-05-13T14:24:01;23.30;38.70
6956;DHT22;50345;51.136;16.886;2023-05-13T14:26:27;23.30;38.30
6956;DHT22;50345;51.136;16.886;2023-05-13T14:28:53;23.30;37.30
6956;DHT22;50345;51.136;16.886;2023-05-13T14:31:19;23.40;37.70
6956;DHT22;50345;51.136;16.886;2023-05-13T14:33:45;23.90;37.30
6956;DHT22;50345;51.136;16.886;2023-05-13T14:36:10;24.40;35.60
6956;DHT22;50345;51.136;16.886;2023-05-13T14:38:41;26.60;33.60
6956;DHT22;50345;51.136;16.886;2023-05-13T14:41:06;27.50;32.90
6956;DHT22;50345;51.136;16.886;2023-05-13T14:43:32;29.40;31.50
6956;DHT22;50345;51.136;16.886;2023-05-13T14:45:58;30.00;30.10
6956;DHT22;50345;51.136;16.886;2023-05-13T14:48:23;30.10;30.10
6956;DHT22;50345;51.136;16.886;2023-05-13T14:50:49;29.70;31.10
6956;DHT22;50345;51.136;16.886;2023-05-13T14:53:15;29.10;31.90
6956;DHT22;50345;51.136;16.886;2023-05-13T14:55:40;28.40;32.50
6956;DHT22;50345;51.136;16.886;2023-05-13T14:58:06;28.20;33.30
6956;DHT22;50345;51.136;16.886;2023-05-13T15:00:33;28.90;33.20
6956;DHT22;50345;51.136;16.886;2023-05-13T15:03:01;29.20;32.40
6956;DHT22;50345;51.136;16.886;2023-05-13T15:05:27;29.60;32.30
6956;DHT22;50345;51.136;16.886;2023-05-13T15:07:53;29.90;30.30
6956;DHT22;50345;51.136;16.886;2023-05-13T15:10:18;30.00;30.50
6956;DHT22;50345;51.136;16.886;2023-05-13T15:12:44;30.10;30.10
6956;DHT22;50345;51.136;16.886;2023-05-13T15:15:10;29.80;30.20
6956;DHT22;50345;51.136;16.886;2023-05-13T15:17:36;30.00;30.10
6956;DHT22;50345;51.136;16.886;2023-05-13T15:20:02;30.00;30.00
6956;DHT22;50345;51.136;16.886;2023-05-13T15:22:28;29.60;29.80
6956;DHT22;50345;51.136;16.886;2023-05-13T15:24:53;28.50;28.00
6956;DHT22;50345;51.136;16.886;2023-05-13T15:27:19;27.80;28.90
6956;DHT22;50345;51.136;16.886;2023-05-13T15:29:44;27.00;30.90
6956;DHT22;50345;51.136;16.886;2023-05-13T15:32:10;26.30;33.20
6956;DHT22;50345;51.136;16.886;2023-05-13T15:34:36;26.10;32.00
6956;DHT22;50345;51.136;16.886;2023-05-13T15:37:02;26.60;30.60
6956;DHT22;50345;51.136;16.886;2023-05-13T15:39:27;27.00;30.30
6956;DHT22;50345;51.136;16.886;2023-05-13T15:41:53;27.30;29.60
6956;DHT22;50345;51.136;16.886;2023-05-13T15:44:18;27.20;29.20
6956;DHT22;50345;51.136;16.886;2023-05-13T15:46:45;26.70;29.40
6956;DHT22;50345;51.136;16.886;2023-05-13T15:49:11;26.20;29.80
6956;DHT22;50345;51.136;16.886;2023-05-13T15:51:36;25.60;30.10